WEATHER DATA

YESTERDAY
Time Temp. Dewp. Hum. Wind dir Wind speed Wind gust Bar. 1h Prec. 24h Prec.
00:05 19.9 14.5 71 140 0.3 0.8 1013.8 0.0000 0.0000
00:15 19.7 14.3 71 189 0.3 0.8 1013.8 0.0000 0.0000
00:25 19.3 14.1 72 210 0.3 0.8 1013.5 0.0000 0.0000
00:35 19.1 14.2 73 221 0.3 1.1 1013.4 0.0000 0.0000
00:45 19 14.3 74 203 0.3 0.8 1013.7 0.0000 0.0000
00:55 18.8 14.1 74 135 0.3 1.1 1013.7 0.0000 0.0000
01:05 18.6 14.1 75 189 0.3 0.8 1013.8 0.0000 0.0000
01:16 18.3 13.8 75 170 0.3 0.8 1013.6 0.0000 0.0000
01:26 18.1 13.8 76 208 0.3 0.8 1013.6 0.0000 0.0000
01:35 18 13.7 76 194 0.3 0.8 1013.4 0.0000 0.0000
01:46 17.9 13.6 76 190 0.3 1.1 1013.4 0.0000 0.0000
01:56 17.8 13.7 77 155 0.3 0.8 1013.4 0.0000 0.0000
02:15 17.6 13.7 78 174 0.3 0.8 1013.5 0.0000 0.0000
02:26 17.4 13.5 78 195 0.3 1.1 1013.3 0.0000 0.0000
02:36 17.4 13.7 79 168 0.3 0.8 1013.3 0.0000 0.0000
02:46 17.3 13.6 79 204 0.3 0.8 1013.3 0.0000 0.0000
02:56 17.2 13.5 79 188 0.3 0.8 1013.3 0.0000 0.0000
03:06 17.1 13.4 79 201 0.3 0.8 1013.2 0.0000 0.0000
03:16 17 13.3 79 174 0.3 0.8 1013.2 0.0000 0.0000
03:26 16.9 13.2 79 161 0.3 0.8 1013 0.0000 0.0000
03:36 16.8 13.3 80 180 0.3 0.8 1013.2 0.0000 0.0000
03:46 16.6 13.1 80 122 0.3 0.8 1013.3 0.0000 0.0000
03:57 16.5 13 80 175 0.3 0.8 1013.1 0.0000 0.0000
04:07 16.3 13 81 167 0.3 0.8 1013.2 0.0000 0.0000
04:17 16.2 12.9 81 150 0.3 0.8 1013.1 0.0000 0.0000
04:26 16.2 12.9 81 156 0.3 0.8 1013.3 0.0000 0.0000
04:37 16.1 13 82 141 0.3 0.8 1013.2 0.0000 0.0000
04:47 16.1 13 82 183 0.3 0.8 1013.1 0.0000 0.0000
04:57 16 12.9 82 175 0.3 0.8 1013.3 0.0000 0.0000
05:07 15.9 12.8 82 175 0.3 0.8 1013.1 0.0000 0.0000
05:17 15.9 12.8 82 188 0.3 0.8 1013.1 0.0000 0.0000
05:27 15.9 12.8 82 188 0.3 0.8 1012.9 0.0000 0.0000
05:37 15.9 13 83 206 0.3 0.8 1013.1 0.0000 0.0000
05:48 15.9 13 83 146 0.3 0.8 1013.2 0.0000 0.0000
05:57 15.9 13 83 270 0.3 1.4 1014 0.0000 0.0000
06:07 16.1 13.6 85 185 0.3 0.8 1014 0.0000 0.0000
06:17 16.4 13.7 84 175 0.3 0.8 1013.8 0.0000 0.0000
06:28 16.7 14 84 164 0.3 1.1 1013.6 0.0000 0.0000
06:38 16.9 14 83 180 0.3 0.8 1014 0.0000 0.0000
06:47 17 14.1 83 135 0.3 1.1 1014.1 0.0000 0.0000
06:58 17 14.1 83 188 0.3 0.8 1014.3 0.0000 0.0000
07:08 17.1 14.2 83 153 0.3 0.8 1014.3 0.0000 0.0000
07:18 17.3 14.4 83 156 0.3 1.1 1014.1 0.0000 0.0000
07:28 17.5 14.6 83 214 0.3 1.1 1013.9 0.0000 0.0000
07:38 17.7 14.8 83 174 0.3 0.8 1013.9 0.0000 0.0000
07:48 18.1 15 82 90 0.3 0.8 1014.3 0.0000 0.0000
07:58 18.3 15 81 128 0.3 0.8 1014.1 0.0000 0.0000
08:09 18.6 15.1 80 192 0.3 0.8 1014.1 0.0000 0.0000
08:18 18.9 15.2 79 184 0.3 0.8 1014.1 0.0000 0.0000
08:28 19.1 15.4 79 196 0.3 0.8 1014.3 0.0000 0.0000
08:38 19.2 15.3 78 203 0.3 1.1 1014.2 0.0000 0.0000
08:49 19.3 15.2 77 191 0.3 1.1 1014.4 0.0000 0.0000
08:59 19.4 15.3 77 174 0.3 0.8 1014.6 0.0000 0.0000
09:08 19.5 15.4 77 180 0.3 0.8 1014.3 0.0000 0.0000
09:19 19.5 15.6 78 205 0.3 0.8 1014.7 0.0000 0.0000
09:29 19.5 15.6 78 158 0.3 0.8 1014.5 0.0000 0.0000
09:39 19.6 15.7 78 155 0.3 0.8 1014.5 0.0000 0.0000
09:49 19.7 15.8 78 200 0.3 0.8 1014.3 0.0000 0.0000
09:59 19.8 15.9 78 141 0.3 0.8 1014.3 0.0000 0.0000
10:09 19.9 16 78 186 0.3 1.1 1014.8 0.0000 0.0000
10:19 20 16.1 78 164 0.3 1.1 1014.9 0.0000 0.0000
10:30 20.3 16.3 78 198 0.3 1.1 1014.6 0.0000 0.0000
10:39 20.6 16.6 78 208 0.3 0.8 1014.7 0.0000 0.0000
10:49 20.9 16.7 77 90 0.3 1.1 1015 0.0000 0.0000
10:59 21.2 16.8 76 183 0.3 1.1 1014.7 0.0000 0.0000
11:10 21.5 16.9 75 232 0.3 1.1 1015 0.0000 0.0000
11:20 21.9 17.3 75 246 0.8 2.2 1015.1 0.0000 0.0000
11:29 22.1 17.3 74 230 0.8 1.9 1015.2 0.0000 0.0000
11:40 22.2 17.1 73 231 0.8 1.4 1015.5 0.0000 0.0000
11:50 22.2 17.1 73 246 0.8 1.4 1015.7 0.0000 0.0000
12:00 22.2 17.1 73 216 0.3 1.1 1015.7 0.0000 0.0000
12:10 22.2 17.3 74 229 0.3 1.1 1015.9 0.0000 0.0000
12:20 22.2 17.6 75 217 0.3 0.8 1016 0.0000 0.0000
12:30 22.3 17.7 75 217 0.3 1.1 1016 0.0000 0.0000
12:40 22.5 17.6 74 180 0.3 0.8 1015.7 0.0000 0.0000
12:51 22.8 17.7 73 168 0.3 1.1 1015.7 0.0000 0.0000
13:00 23.2 17.9 72 225 0.8 1.4 1016 0.0000 0.0000
13:10 24.3 18.5 70 153 0.8 1.4 1016.1 0.0000 0.0000
13:20 24.8 18.3 67 246 0.8 1.9 1016.1 0.0000 0.0000
13:31 25.2 18.2 65 270 1.1 3.6 1016 0.0000 0.0000
13:41 25.3 17.8 63 270 1.1 3.3 1015.8 0.0000 0.0000
13:50 25.4 17.6 62 262 1.1 2.8 1015.9 0.0000 0.0000
14:01 25.2 17.4 62 270 1.1 3.3 1015.9 0.0000 0.0000
14:11 25 17.5 63 233 0.8 1.9 1015.7 0.0000 0.0000
14:21 24.9 17.4 63 210 0.8 1.9 1015.5 0.0000 0.0000
14:31 24.7 17.2 63 120 0.8 2.2 1015.5 0.0000 0.0000
14:41 24.5 17.2 64 213 0.3 1.1 1015.2 0.0000 0.0000
14:51 24.8 17.8 65 165 0.8 1.4 1015.1 0.0000 0.0000
15:01 25.2 17.9 64 122 0.8 1.4 1015.1 0.0000 0.0000
15:12 25.7 17.9 62 102 0.8 2.2 1015 0.0000 0.0000
15:21 26.4 18.3 61 118 0.8 2.2 1015.1 0.0000 0.0000
15:31 27.3 18.3 58 116 0.8 2.5 1015 0.0000 0.0000
15:41 28.1 18.5 56 206 0.8 1.9 1014.7 0.0000 0.0000
15:52 28.9 18.7 54 135 0.8 2.2 1014.4 0.0000 0.0000
16:02 29.4 18.5 52 232 0.8 1.9 1014.4 0.0000 0.0000
16:11 29.6 18.4 51 255 0.8 1.9 1014.3 0.0000 0.0000
16:22 29.8 18.3 50 108 0.8 2.5 1014.2 0.0000 0.0000
16:32 30.2 18.6 50 219 0.8 1.4 1014.2 0.0000 0.0000
16:42 30.5 17.9 47 252 0.8 1.9 1014.1 0.0000 0.0000
16:52 30.7 18.1 47 258 0.8 1.9 1014.1 0.0000 0.0000
17:02 30.8 18.2 47 236 1.1 1.9 1014.2 0.0000 0.0000
17:12 30.5 17.6 46 204 0.8 1.4 1013.9 0.0000 0.0000
17:22 30.6 17.3 45 213 0.8 1.9 1014 0.0000 0.0000
17:32 30.4 17.1 45 143 0.8 1.4 1014.1 0.0000 0.0000
17:42 30.1 16.5 44 170 0.8 2.5 1014 0.0000 0.0000
17:53 29.9 16.3 44 232 0.8 1.9 1014 0.0000 0.0000
18:02 29.8 16.2 44 200 0.8 2.2 1014.1 0.0000 0.0000
18:12 29.5 16 44 225 0.8 1.9 1014 0.0000 0.0000
18:23 29.2 16.1 45 225 0.8 1.4 1014 0.0000 0.0000
18:33 29.1 16 45 225 0.3 1.1 1013.9 0.0000 0.0000
18:43 28.9 16.1 46 188 0.8 1.1 1013.8 0.0000 0.0000
18:53 28.7 16.3 47 198 0.8 1.1 1014 0.0000 0.0000
19:03 28.5 16.1 47 203 0.8 1.1 1013.7 0.0000 0.0000
19:13 28.3 16.2 48 164 0.3 1.1 1013.7 0.0000 0.0000
19:23 28.1 16.4 49 205 0.3 1.1 1013.6 0.0000 0.0000
19:34 27.9 16.2 49 150 0.3 1.1 1013.5 0.0000 0.0000
19:43 27.6 16.2 50 175 0.8 1.1 1013.5 0.0000 0.0000
19:53 27.3 16.3 51 225 0.8 1.1 1013.4 0.0000 0.0000
20:03 27 16.3 52 225 0.3 1.1 1013.4 0.0000 0.0000
20:14 26.6 16.2 53 212 0.3 1.1 1013.4 0.0000 0.0000
20:23 26.3 16.5 55 219 0.8 1.1 1013.4 0.0000 0.0000
20:33 25.9 16.5 56 225 0.8 1.1 1013.6 0.0000 0.0000
20:44 25.5 16.4 57 231 0.8 1.1 1013.6 0.0000 0.0000
20:54 25.1 16.3 58 225 0.8 1.1 1013.8 0.0000 0.0000
21:04 24.7 16.2 59 218 0.3 1.1 1013.9 0.0000 0.0000
21:14 24.3 16 60 188 0.3 1.1 1014 0.0000 0.0000
21:24 23.9 15.9 61 214 0.3 1.1 1014.2 0.0000 0.0000
21:34 23.6 15.9 62 203 0.3 1.1 1014.2 0.0000 0.0000
21:44 23.4 16 63 155 0.3 0.8 1014.3 0.0000 0.0000
21:55 23.1 15.9 64 225 0.3 1.1 1014.2 0.0000 0.0000
22:04 22.9 15.7 64 217 0.3 0.8 1014.3 0.0000 0.0000
22:14 22.8 15.9 65 218 0.3 1.1 1014.3 0.0000 0.0000
22:24 22.7 15.8 65 214 0.3 1.1 1014.2 0.0000 0.0000
22:35 22.5 15.8 66 180 0.3 0.8 1014.1 0.0000 0.0000
22:45 22.3 15.9 67 201 0.3 1.1 1014.1 0.0000 0.0000
22:54 22 15.6 67 90 0.3 0.8 1014.3 0.0000 0.0000
23:05 21.6 15.4 68 180 0.3 0.8 1014.3 0.0000 0.0000
23:15 21.3 15.4 69 187 0.3 1.1 1014.3 0.0000 0.0000
23:25 21.1 15.4 70 158 0.3 0.8 1014.4 0.0000 0.0000
23:35 20.9 15.2 70 130 0.3 1.1 1014.4 0.0000 0.0000
23:45 20.6 15.2 71 135 0.3 0.8 1014.5 0.0000 0.0000
23:55 20.4 15.2 72 208 0.3 0.8 1014.5 0.0000 0.0000

DAY STATISTIC

2022-08-17
TEMPERATURE
AVERAGE
22.1
HIGH
30.8
17:02
LOW
15.9
05:07
PRESSURE
AVERAGE
1014.2
HIGH
1016.1
13:10
LOW
1012.9
05:27
DEWPOINT
AVERAGE
15.7
HIGH
18.7
15:52
LOW
12.8
05:07
HUMIDITY
AVERAGE
69
HIGH
85
06:07
LOW
44
17:42
WIND SPEED
AVERAGE
0.5
HIGH
1.1
13:31
WIND GUST
AVERAGE
1.2
HIGH
3.6
13:31
WIND DIRECTION
PREVAILING
S
41.5%
N
0.0
NE
0.0
E
3.5
SE
17.6
S
41.5
SW
31.7
W
5.6
NW
0.0
PRECIPITATION
RAIN HOUR
0.0
RAIN DAY
0.0
TEMPERATURE (°C)
LOW
15.9
HIGH
30.8
AVERAGE
22.1
PRESSURE (hpa)
LOW
1012.9
HIGH
1016.1
AVERAGE
1014.2
DEVICE